createdAt,value
2022-08-20T00:00:29.622Z,6.78
2022-08-20T00:03:00.612Z,6.80
2022-08-20T00:05:31.072Z,6.13
2022-08-20T00:08:00.411Z,6.40
2022-08-20T00:10:32.582Z,6.18
2022-08-20T00:13:00.377Z,6.30
2022-08-20T00:15:31.630Z,6.60
2022-08-20T00:17:59.381Z,6.95
2022-08-20T00:20:30.674Z,6.78
2022-08-20T00:22:58.725Z,7.12
2022-08-20T00:25:26.690Z,8.73
2022-08-20T00:27:53.819Z,6.93
2022-08-20T00:30:20.839Z,6.65
2022-08-20T00:32:58.634Z,7.32
2022-08-20T00:35:28.366Z,6.85
2022-08-20T00:37:59.979Z,7.75
2022-08-20T00:40:32.099Z,7.68
2022-08-20T00:43:00.849Z,6.95
2022-08-20T00:45:31.534Z,7.43
2022-08-20T00:47:58.938Z,6.60
2022-08-20T00:50:34.225Z,7.50
2022-08-20T00:53:03.844Z,7.82
2022-08-20T00:55:32.742Z,6.80
2022-08-20T00:58:03.778Z,7.30
2022-08-20T01:00:39.397Z,7.90
2022-08-20T01:03:09.943Z,7.70
2022-08-20T01:05:38.012Z,7.82
2022-08-20T01:08:05.695Z,8.00
2022-08-20T01:10:37.023Z,8.77
2022-08-20T01:15:43.471Z,7.43
2022-08-20T01:18:15.002Z,7.50
2022-08-20T01:20:46.948Z,7.53
2022-08-20T01:23:54.874Z,6.93
2022-08-20T01:26:37.820Z,7.47
2022-08-20T01:29:10.907Z,7.97
2022-08-20T01:31:39.613Z,8.82
2022-08-20T01:34:10.241Z,6.45
2022-08-20T01:36:46.324Z,8.35
2022-08-20T01:39:18.503Z,6.62
2022-08-20T01:41:52.343Z,7.97
2022-08-20T01:44:21.167Z,7.12
2022-08-20T01:46:50.448Z,7.12
2022-08-20T01:49:26.415Z,7.22
2022-08-20T01:51:55.661Z,9.43
2022-08-20T01:54:22.533Z,6.78
2022-08-20T01:57:02.294Z,7.57
2022-08-20T01:59:29.891Z,6.82
2022-08-20T02:01:57.353Z,7.22
2022-08-20T02:04:24.489Z,7.57
2022-08-20T02:06:56.784Z,6.78
2022-08-20T02:09:27.549Z,7.72
2022-08-20T02:11:54.420Z,7.80
2022-08-20T02:14:21.528Z,7.82
2022-08-20T02:16:55.271Z,6.85
2022-08-20T02:19:27.791Z,7.03
2022-08-20T02:21:58.743Z,7.25
2022-08-20T02:24:25.560Z,6.93
2022-08-20T02:26:52.698Z,7.60
2022-08-20T02:29:19.604Z,6.87
2022-08-20T02:32:32.161Z,7.30
2022-08-20T02:34:36.351Z,7.12
2022-08-20T02:37:06.032Z,7.55
2022-08-20T02:39:33.306Z,7.78
2022-08-20T02:42:02.834Z,7.57
2022-08-20T02:44:30.738Z,8.60
2022-08-20T02:46:58.363Z,7.65
2022-08-20T02:49:25.045Z,7.15
2022-08-20T02:51:51.804Z,8.25
2022-08-20T02:54:18.848Z,7.47
2022-08-20T02:56:45.615Z,6.97
2022-08-20T02:59:18.978Z,7.10
2022-08-20T03:01:48.444Z,7.12
2022-08-20T03:04:30.560Z,7.28
2022-08-20T03:06:58.708Z,8.13
2022-08-20T03:09:25.515Z,7.07
2022-08-20T03:11:52.912Z,7.15
2022-08-20T03:14:20.018Z,7.07
2022-08-20T03:16:46.809Z,6.82
2022-08-20T03:19:13.873Z,6.18
2022-08-20T03:21:41.401Z,6.60
2022-08-20T03:24:08.618Z,8.20
2022-08-20T03:26:35.368Z,6.80
2022-08-20T03:29:02.782Z,6.78
2022-08-20T03:31:29.746Z,6.57
2022-08-20T03:33:56.547Z,7.03
2022-08-20T03:36:27.960Z,9.02
2022-08-20T03:38:58.285Z,7.35
2022-08-20T03:41:25.659Z,7.72
2022-08-20T03:43:52.574Z,7.87
2022-08-20T03:46:22.170Z,6.97
2022-08-20T03:48:56.313Z,8.18
2022-08-20T03:51:28.471Z,7.78
2022-08-20T03:53:55.470Z,10.35
2022-08-20T03:56:22.129Z,11.12
2022-08-20T03:58:48.791Z,8.77
2022-08-20T04:01:44.477Z,11.80
2022-08-20T04:04:02.847Z,9.75
2022-08-20T04:06:30.386Z,8.65
2022-08-20T04:08:58.475Z,7.82
2022-08-20T04:11:25.448Z,7.12
2022-08-20T04:13:52.537Z,8.80
2022-08-20T04:16:19.461Z,10.10
2022-08-20T04:19:02.011Z,7.55
2022-08-20T04:21:33.057Z,7.00
2022-08-20T04:24:02.446Z,7.15
2022-08-20T04:26:29.908Z,6.95
2022-08-20T04:28:56.889Z,8.23
2022-08-20T04:31:41.512Z,7.97
2022-08-20T04:34:08.122Z,7.95
2022-08-20T04:36:35.568Z,7.78
2022-08-20T04:39:02.298Z,7.85
2022-08-20T04:41:29.029Z,8.50
2022-08-20T04:43:56.889Z,8.05
2022-08-20T04:46:28.687Z,7.45
2022-08-20T04:48:57.049Z,7.97
2022-08-20T04:51:24.773Z,8.10
2022-08-20T04:53:56.224Z,8.43
2022-08-20T04:58:57.099Z,7.87
2022-08-20T05:01:26.150Z,7.95
2022-08-20T05:03:55.251Z,8.18
2022-08-20T05:06:25.658Z,7.80
2022-08-20T05:08:53.970Z,12.18
2022-08-20T05:11:33.716Z,7.45
2022-08-20T05:14:02.839Z,8.68
2022-08-20T05:16:29.674Z,8.25
2022-08-20T05:18:56.401Z,10.13
2022-08-20T05:21:23.396Z,8.77
2022-08-20T05:23:50.082Z,8.35
2022-08-20T05:26:20.157Z,12.48
2022-08-20T05:28:54.228Z,10.07
2022-08-20T05:31:32.560Z,8.60
2022-08-20T05:34:03.165Z,8.13
2022-08-20T05:36:29.996Z,7.35
2022-08-20T05:38:56.813Z,6.40
2022-08-20T05:41:29.143Z,8.07
2022-08-20T05:44:00.658Z,7.12
2022-08-20T05:46:28.812Z,6.78
2022-08-20T05:48:55.752Z,8.10
2022-08-20T05:51:26.370Z,6.27
2022-08-20T05:53:53.365Z,6.72
2022-08-20T05:56:20.086Z,7.80
2022-08-20T05:58:54.131Z,6.50
2022-08-20T06:01:21.472Z,11.43
2022-08-20T06:04:07.409Z,6.20
2022-08-20T06:06:44.199Z,10.05
2022-08-20T06:09:16.224Z,6.50
2022-08-20T06:11:43.098Z,10.57
2022-08-20T06:14:10.079Z,7.03
2022-08-20T06:16:37.577Z,5.53
2022-08-20T06:19:05.326Z,5.95
2022-08-20T06:21:32.070Z,5.65
2022-08-20T06:24:01.890Z,5.18
2022-08-20T06:26:30.715Z,4.82
2022-08-20T06:29:06.852Z,6.35
2022-08-20T06:31:35.028Z,8.20
2022-08-20T06:34:01.986Z,10.25
2022-08-20T06:36:28.800Z,6.07
2022-08-20T06:38:58.378Z,6.87
2022-08-20T06:41:36.250Z,6.20
2022-08-20T06:44:05.754Z,5.20
2022-08-20T06:46:33.094Z,4.53
2022-08-20T06:49:00.583Z,5.37
2022-08-20T06:51:27.644Z,4.95
2022-08-20T06:53:54.492Z,5.43
2022-08-20T06:56:21.319Z,5.18
2022-08-20T06:58:49.518Z,4.90
2022-08-20T07:01:21.181Z,4.80
2022-08-20T07:03:54.780Z,5.30
2022-08-20T07:06:25.705Z,4.62
2022-08-20T07:08:54.128Z,4.72
2022-08-20T07:11:27.014Z,4.65
2022-08-20T07:13:56.612Z,4.47
2022-08-20T07:16:23.895Z,5.03
2022-08-20T07:18:50.545Z,6.82
2022-08-20T07:21:17.673Z,5.57
2022-08-20T07:23:44.315Z,4.07
2022-08-20T07:26:11.092Z,3.28
2022-08-20T07:28:38.226Z,3.80
2022-08-20T07:31:23.334Z,3.65
2022-08-20T07:33:50.656Z,3.40
2022-08-20T07:36:18.421Z,4.18
2022-08-20T07:38:52.699Z,3.08
2022-08-20T07:41:20.428Z,3.72
2022-08-20T07:43:47.805Z,3.12
2022-08-20T07:46:20.841Z,3.37
2022-08-20T07:48:50.253Z,3.60
2022-08-20T07:51:19.711Z,3.35
2022-08-20T07:53:48.730Z,3.20
2022-08-20T07:56:20.028Z,3.22
2022-08-20T07:58:51.368Z,3.35
2022-08-20T08:01:30.439Z,3.67
2022-08-20T08:03:59.100Z,3.25
2022-08-20T08:06:29.162Z,2.90
2022-08-20T08:09:11.724Z,4.03
2022-08-20T08:11:47.005Z,4.22
2022-08-20T08:14:18.999Z,3.75
2022-08-20T08:16:46.178Z,3.87
2022-08-20T08:19:17.560Z,3.47
2022-08-20T08:21:44.737Z,3.58
2022-08-20T08:24:14.375Z,3.40
2022-08-20T08:26:43.969Z,3.78
2022-08-20T08:29:12.064Z,4.28
2022-08-20T08:31:40.960Z,3.10
2022-08-20T08:34:08.305Z,3.20
2022-08-20T08:36:35.443Z,3.30
2022-08-20T08:39:02.118Z,4.00
2022-08-20T08:41:48.381Z,2.72
2022-08-20T08:44:24.260Z,2.83
2022-08-20T08:47:01.053Z,3.35
2022-08-20T08:49:37.435Z,3.30
2022-08-20T08:52:19.777Z,3.28
2022-08-20T08:54:51.810Z,2.70
2022-08-20T09:00:03.988Z,2.78
2022-08-20T09:02:33.944Z,3.28
2022-08-20T09:05:03.073Z,3.30
2022-08-20T09:07:33.402Z,10.70
2022-08-20T09:10:01.625Z,4.45
2022-08-20T09:12:28.425Z,4.72
2022-08-20T09:14:55.189Z,3.58
2022-08-20T09:17:23.375Z,2.83
2022-08-20T09:19:52.148Z,3.00
2022-08-20T09:22:22.186Z,2.75
2022-08-20T09:24:50.089Z,2.75
2022-08-20T09:27:17.696Z,2.60
2022-08-20T09:29:44.687Z,3.70
2022-08-20T09:32:21.439Z,2.58
2022-08-20T09:34:52.593Z,3.50
2022-08-20T09:37:19.675Z,2.40
2022-08-20T09:39:47.538Z,3.03
2022-08-20T09:42:26.345Z,2.80
2022-08-20T09:44:53.898Z,2.72
2022-08-20T09:47:21.151Z,2.78
2022-08-20T09:49:48.121Z,2.70
2022-08-20T09:52:32.057Z,2.37
2022-08-20T09:55:01.761Z,2.60
2022-08-20T09:57:30.571Z,2.60
2022-08-20T10:00:01.779Z,2.35
2022-08-20T10:02:39.276Z,3.35
2022-08-20T10:05:06.886Z,2.67
2022-08-20T10:07:38.663Z,2.67
2022-08-20T10:10:07.076Z,2.60
2022-08-20T10:12:34.182Z,2.47
2022-08-20T10:15:00.953Z,3.45
2022-08-20T10:17:27.696Z,2.67
2022-08-20T10:19:54.657Z,2.87
2022-08-20T10:22:21.310Z,2.78
2022-08-20T10:24:48.363Z,2.80
2022-08-20T10:27:15.266Z,2.90
2022-08-20T10:29:46.613Z,3.60
2022-08-20T10:32:16.158Z,3.28
2022-08-20T10:34:45.084Z,3.25
2022-08-20T10:37:18.590Z,2.72
2022-08-20T10:39:45.807Z,2.70
2022-08-20T10:42:12.831Z,2.83
2022-08-20T10:44:39.973Z,3.00
2022-08-20T10:47:15.012Z,2.78
2022-08-20T10:49:41.978Z,2.90
2022-08-20T10:52:09.194Z,3.12
2022-08-20T10:54:35.911Z,2.55
2022-08-20T10:57:05.825Z,3.45
2022-08-20T10:59:32.802Z,3.03
2022-08-20T11:01:59.527Z,2.95
2022-08-20T11:04:26.297Z,3.50
2022-08-20T11:06:53.188Z,3.72
2022-08-20T11:09:19.855Z,3.87
2022-08-20T11:11:46.509Z,3.00
2022-08-20T11:14:13.448Z,3.10
2022-08-20T11:16:40.099Z,3.30
2022-08-20T11:19:06.807Z,4.00
2022-08-20T11:21:33.753Z,3.58
2022-08-20T11:24:02.991Z,3.53
2022-08-20T11:26:29.951Z,4.20
2022-08-20T11:28:56.997Z,4.10
2022-08-20T11:31:23.715Z,4.32
2022-08-20T11:33:50.369Z,3.45
2022-08-20T11:36:17.371Z,4.00
2022-08-20T11:38:44.084Z,3.97
2022-08-20T11:41:10.768Z,4.60
2022-08-20T11:43:37.683Z,4.00
2022-08-20T11:46:04.507Z,7.20
2022-08-20T11:48:31.150Z,3.62
2022-08-20T11:50:58.138Z,5.00
2022-08-20T11:53:24.877Z,4.07
2022-08-20T11:55:52.077Z,4.22
2022-08-20T11:58:20.116Z,3.90
2022-08-20T12:00:46.990Z,4.43
2022-08-20T12:03:14.025Z,9.38
2022-08-20T12:05:43.951Z,5.45
2022-08-20T12:08:25.292Z,4.95
2022-08-20T12:10:59.675Z,3.90
2022-08-20T12:16:14.962Z,4.18
2022-08-20T12:18:41.715Z,4.05
2022-08-20T12:21:08.589Z,4.85
2022-08-20T12:23:35.620Z,3.90
2022-08-20T12:26:03.347Z,4.40
2022-08-20T12:28:31.289Z,4.12
2022-08-20T12:30:59.005Z,4.07
2022-08-20T12:33:25.715Z,3.92
2022-08-20T12:35:53.079Z,4.07
2022-08-20T12:38:20.407Z,4.40
2022-08-20T12:40:47.082Z,4.20
2022-08-20T12:43:13.960Z,3.97
2022-08-20T12:45:41.008Z,4.32
2022-08-20T12:48:11.575Z,3.87
2022-08-20T12:50:41.479Z,4.30
2022-08-20T12:53:09.309Z,4.18
2022-08-20T12:55:36.075Z,4.57
2022-08-20T12:58:04.402Z,4.00
2022-08-20T13:00:37.697Z,4.87
2022-08-20T13:03:07.171Z,4.55
2022-08-20T13:05:35.879Z,30.25
2022-08-20T13:08:07.758Z,6.93
2022-08-20T13:10:37.302Z,4.05
2022-08-20T13:13:04.157Z,3.85
2022-08-20T13:15:32.077Z,4.37
2022-08-20T13:18:01.342Z,4.10
2022-08-20T13:20:34.024Z,3.97
2022-08-20T13:23:04.389Z,3.75
2022-08-20T13:25:31.571Z,4.25
2022-08-20T13:28:00.668Z,3.80
2022-08-20T13:30:27.936Z,3.97
2022-08-20T13:32:54.671Z,4.57
2022-08-20T13:35:21.821Z,3.87
2022-08-20T13:37:49.848Z,14.43
2022-08-20T13:40:17.402Z,5.90
2022-08-20T13:42:44.102Z,4.15
2022-08-20T13:45:11.455Z,3.75
2022-08-20T13:47:39.318Z,4.40
2022-08-20T13:50:12.988Z,4.72
2022-08-20T13:52:40.414Z,3.75
2022-08-20T13:55:11.501Z,4.35
2022-08-20T13:57:38.752Z,5.45
2022-08-20T14:00:11.882Z,5.95
2022-08-20T14:02:39.984Z,4.22
2022-08-20T14:05:07.263Z,3.90
2022-08-20T14:07:34.125Z,3.87
2022-08-20T14:10:14.038Z,4.00
2022-08-20T14:12:40.925Z,4.35
2022-08-20T14:15:09.110Z,3.67
2022-08-20T14:17:38.737Z,5.25
2022-08-20T14:20:19.625Z,4.12
2022-08-20T14:22:46.637Z,4.50
2022-08-20T14:25:16.005Z,4.12
2022-08-20T14:27:42.959Z,7.78
2022-08-20T14:30:14.150Z,4.57
2022-08-20T14:32:41.071Z,13.48
2022-08-20T14:35:09.145Z,6.05
2022-08-20T14:37:38.762Z,4.12
2022-08-20T14:40:10.161Z,4.82
2022-08-20T14:42:37.959Z,3.87
2022-08-20T14:45:07.045Z,4.60
2022-08-20T14:47:36.967Z,4.05
2022-08-20T14:50:08.341Z,10.23
2022-08-20T14:52:36.686Z,5.15
2022-08-20T14:55:09.044Z,9.05
2022-08-20T14:57:36.169Z,6.20
2022-08-20T15:00:05.620Z,18.40
2022-08-20T15:02:32.363Z,11.65
2022-08-20T15:04:59.307Z,4.78
2022-08-20T15:07:32.434Z,4.30
2022-08-20T15:10:01.215Z,4.55
2022-08-20T15:12:29.023Z,4.37
2022-08-20T15:14:56.544Z,8.57
2022-08-20T15:17:29.667Z,5.57
2022-08-20T15:19:57.682Z,9.95
2022-08-20T15:22:24.595Z,7.50
2022-08-20T15:24:55.563Z,6.90
2022-08-20T15:27:25.465Z,6.95
2022-08-20T15:29:53.467Z,8.60
2022-08-20T15:32:21.314Z,6.32
2022-08-20T15:34:48.939Z,6.82
2022-08-20T15:37:19.287Z,6.62
2022-08-20T15:39:47.200Z,5.90
2022-08-20T15:42:14.663Z,7.93
2022-08-20T15:44:42.780Z,9.98
2022-08-20T15:47:29.425Z,14.25
2022-08-20T15:50:07.955Z,15.05
2022-08-20T15:52:43.662Z,15.70
2022-08-20T15:55:14.876Z,15.80
2022-08-20T15:57:54.692Z,16.48
2022-08-20T16:00:25.582Z,16.40
2022-08-20T16:03:13.172Z,17.30
2022-08-20T16:05:43.794Z,17.25
2022-08-20T16:09:00.231Z,20.60
2022-08-20T16:11:31.760Z,19.65
2022-08-20T16:14:21.559Z,23.02
2022-08-20T16:17:05.198Z,20.55
2022-08-20T16:19:56.758Z,24.05
2022-08-20T16:22:27.221Z,20.92
2022-08-20T16:24:54.486Z,20.27
2022-08-20T16:27:44.415Z,20.98
2022-08-20T16:30:30.750Z,19.80
2022-08-20T16:33:06.737Z,19.35
2022-08-20T16:35:55.798Z,22.73
2022-08-20T16:38:50.758Z,22.95
2022-08-20T16:41:42.738Z,19.48
2022-08-20T16:47:14.035Z,21.23
2022-08-20T16:49:49.560Z,18.65
2022-08-20T16:52:16.701Z,18.42
2022-08-20T16:54:44.823Z,20.90
2022-08-20T16:57:16.983Z,21.37
2022-08-20T17:00:13.898Z,18.83
2022-08-20T17:02:54.777Z,21.58
2022-08-20T17:05:24.394Z,27.90
2022-08-20T17:07:54.174Z,16.08
2022-08-20T17:10:34.193Z,17.08
2022-08-20T17:13:06.168Z,18.77
2022-08-20T17:15:35.243Z,21.37
2022-08-20T17:18:22.974Z,18.65
2022-08-20T17:20:50.418Z,22.92
2022-08-20T17:23:19.134Z,19.87
2022-08-20T17:25:56.509Z,18.92
2022-08-20T17:28:23.583Z,20.42
2022-08-20T17:30:50.621Z,18.00
2022-08-20T17:33:29.384Z,18.80
2022-08-20T17:36:04.176Z,13.75
2022-08-20T17:38:38.065Z,16.98
2022-08-20T17:41:18.102Z,22.62
2022-08-20T17:43:45.654Z,19.95
2022-08-20T17:46:16.737Z,18.30
2022-08-20T17:48:47.380Z,13.62
2022-08-20T17:51:21.634Z,18.23
2022-08-20T17:53:56.471Z,19.85
2022-08-20T17:56:34.491Z,18.05
2022-08-20T17:59:20.922Z,13.70
2022-08-20T18:02:05.167Z,15.80
2022-08-20T18:04:32.201Z,24.15
2022-08-20T18:07:17.060Z,17.73
2022-08-20T18:09:55.740Z,24.75
2022-08-20T18:12:37.070Z,15.23
2022-08-20T18:17:58.929Z,17.05
2022-08-20T18:20:50.779Z,21.85
2022-08-20T18:23:23.305Z,16.10
2022-08-20T18:25:58.179Z,19.45
2022-08-20T18:28:38.536Z,12.93
2022-08-20T18:31:09.070Z,21.83
2022-08-20T18:33:38.916Z,21.17
2022-08-20T18:36:19.927Z,14.43
2022-08-20T18:39:23.501Z,21.08
2022-08-20T18:42:04.544Z,20.00
2022-08-20T18:44:46.618Z,16.25
2022-08-20T18:47:28.603Z,23.65
2022-08-20T18:53:13.155Z,24.27
2022-08-20T18:55:43.683Z,20.55
2022-08-20T18:58:13.815Z,24.85
2022-08-20T19:00:42.402Z,19.90
2022-08-20T19:03:33.701Z,18.87
2022-08-20T19:06:18.087Z,21.05
2022-08-20T19:08:52.945Z,18.05
2022-08-20T19:11:44.695Z,21.52
2022-08-20T19:14:41.364Z,22.25
2022-08-20T19:17:19.634Z,22.10
2022-08-20T19:19:57.644Z,16.87
2022-08-20T19:22:24.864Z,17.62
2022-08-20T19:24:54.305Z,21.67
2022-08-20T19:27:25.927Z,17.42
2022-08-20T19:29:56.898Z,22.45
2022-08-20T19:32:29.822Z,17.67
2022-08-20T19:34:59.506Z,20.23
2022-08-20T19:37:38.559Z,23.52
2022-08-20T19:40:22.029Z,19.67
2022-08-20T19:42:51.633Z,20.62
2022-08-20T19:45:36.013Z,23.80
2022-08-20T19:48:34.212Z,19.05
2022-08-20T19:51:27.652Z,21.55
2022-08-20T19:53:55.117Z,19.12
2022-08-20T19:56:25.489Z,19.52
2022-08-20T19:59:05.290Z,18.30
2022-08-20T20:01:33.594Z,18.73
2022-08-20T20:04:14.515Z,17.52
2022-08-20T20:06:45.089Z,18.30
2022-08-20T20:09:19.476Z,24.33
2022-08-20T20:11:51.743Z,17.83
2022-08-20T20:14:22.951Z,15.30
2022-08-20T20:16:51.495Z,19.98
2022-08-20T20:19:28.021Z,19.50
2022-08-20T20:22:20.074Z,17.60
2022-08-20T20:25:10.143Z,14.13
2022-08-20T20:27:36.973Z,19.52
2022-08-20T20:30:13.860Z,20.40
2022-08-20T20:32:47.991Z,14.23
2022-08-20T20:35:28.974Z,18.75
2022-08-20T20:38:06.622Z,14.03
2022-08-20T20:40:44.450Z,20.20
2022-08-20T20:43:22.048Z,20.00
2022-08-20T20:46:06.438Z,19.37
2022-08-20T20:48:54.344Z,17.35
2022-08-20T20:51:31.959Z,16.87
2022-08-20T20:54:03.122Z,19.62
2022-08-20T20:56:42.110Z,19.83
2022-08-20T20:59:10.714Z,22.20
2022-08-20T21:01:48.617Z,26.77
2022-08-20T21:04:22.013Z,19.10
2022-08-20T21:06:50.736Z,18.12
2022-08-20T21:09:18.624Z,21.45
2022-08-20T21:11:45.734Z,19.23
2022-08-20T21:14:12.794Z,20.75
2022-08-20T21:16:39.551Z,20.02
2022-08-20T21:19:07.790Z,18.27
2022-08-20T21:21:36.917Z,21.05
2022-08-20T21:24:04.718Z,19.48
2022-08-20T21:26:32.186Z,19.98
2022-08-20T21:28:59.330Z,23.42
2022-08-20T21:31:31.509Z,20.02
2022-08-20T21:33:58.292Z,13.82
2022-08-20T21:36:25.472Z,17.73
2022-08-20T21:38:52.190Z,17.90
2022-08-20T21:41:19.252Z,20.50
2022-08-20T21:43:58.894Z,18.73
2022-08-20T21:46:28.682Z,19.73
2022-08-20T21:48:56.130Z,20.40
2022-08-20T21:51:23.237Z,22.25
2022-08-20T21:53:50.097Z,17.23
2022-08-20T21:56:17.089Z,20.45
2022-08-20T21:58:46.962Z,17.37
2022-08-20T22:01:15.375Z,16.00
2022-08-20T22:03:42.863Z,19.90
2022-08-20T22:06:11.802Z,21.20
2022-08-20T22:08:38.917Z,17.70
2022-08-20T22:11:08.198Z,18.30
2022-08-20T22:13:35.867Z,16.75
2022-08-20T22:16:06.425Z,18.40
2022-08-20T22:18:34.676Z,19.50
2022-08-20T22:21:02.668Z,24.50
2022-08-20T22:23:29.415Z,13.23
2022-08-20T22:25:56.453Z,21.50
2022-08-20T22:28:23.430Z,19.17
2022-08-20T22:30:50.349Z,21.90
2022-08-20T22:33:21.972Z,22.45
2022-08-20T22:35:52.019Z,17.87
2022-08-20T22:38:19.651Z,15.23
2022-08-20T22:40:48.269Z,18.48
2022-08-20T22:43:15.116Z,17.90
2022-08-20T22:45:45.401Z,16.80
2022-08-20T22:48:16.113Z,22.95
2022-08-20T22:50:43.491Z,18.45
2022-08-20T22:53:11.531Z,20.52
2022-08-20T22:55:38.620Z,17.10
2022-08-20T22:58:06.792Z,20.17
2022-08-20T23:00:34.582Z,19.48
2022-08-20T23:03:03.171Z,18.70
2022-08-20T23:05:33.313Z,22.50
2022-08-20T23:08:01.109Z,22.27
2022-08-20T23:10:30.276Z,18.73
2022-08-20T23:12:57.508Z,23.60
2022-08-20T23:15:26.209Z,20.10
2022-08-20T23:17:56.871Z,15.38
2022-08-20T23:20:24.032Z,21.20
2022-08-20T23:22:50.797Z,17.12
2022-08-20T23:25:21.453Z,23.38
2022-08-20T23:27:51.738Z,19.83
2022-08-20T23:30:20.764Z,23.67
2022-08-20T23:32:48.146Z,19.75
2022-08-20T23:35:16.272Z,19.17
2022-08-20T23:37:47.031Z,23.77
2022-08-20T23:40:15.520Z,18.30
2022-08-20T23:42:42.836Z,16.85
2022-08-20T23:45:09.965Z,18.12
2022-08-20T23:47:37.635Z,19.08
2022-08-20T23:50:07.221Z,21.83
2022-08-20T23:52:33.887Z,18.75
2022-08-20T23:55:00.735Z,20.50
2022-08-20T23:57:27.828Z,17.23
2022-08-20T23:59:54.539Z,19.92
